Time;durP1;ratioP1;P1;durP2;ratioP2;P2;SDS_P1;SDS_P2;PMS_P1;PMS_P2;Temp;Humidity;BMP_temperature;BMP_pressure;BME280_temperature;BME280_humidity;BME280_pressure;Samples;Min_cycle;Max_cycle;Signal;HPM_P1;HPM_P2
2021/12/03 00:00:07;;;;;;;3.65;2.28;;;;;;;12.11;46.59;96278.16;4901547;29;20036;-88
2021/12/03 00:02:33;;;;;;;3.85;1.98;;;;;;;11.94;47.14;96266.25;4917332;29;20036;-88
2021/12/03 00:04:58;;;;;;;4.25;2.38;;;;;;;11.86;47.45;96268.75;4901380;29;20040;-87
2021/12/03 00:07:24;;;;;;;4.28;1.98;;;;;;;11.64;47.90;96274.25;4901348;29;20024;-89
2021/12/03 00:09:51;;;;;;;4.10;2.22;;;;;;;11.70;47.73;96263.03;4902033;29;20036;-88
2021/12/03 00:12:16;;;;;;;5.80;2.60;;;;;;;11.64;47.79;96253.69;4901686;29;20040;-88
2021/12/03 00:14:42;;;;;;;5.13;2.95;;;;;;;11.41;47.88;96250.31;4901653;29;20035;-87
2021/12/03 00:17:07;;;;;;;5.82;2.50;;;;;;;11.41;48.39;96266.38;4901226;29;20122;-87
2021/12/03 00:19:33;;;;;;;2.47;1.73;;;;;;;11.51;48.23;96262.91;4901796;29;20028;-87
2021/12/03 00:21:59;;;;;;;5.22;2.55;;;;;;;11.52;48.41;96272.63;4900674;29;20095;-88
2021/12/03 00:24:24;;;;;;;4.30;2.67;;;;;;;11.38;48.61;96265.81;4901713;29;20087;-86
2021/12/03 00:26:50;;;;;;;3.97;2.03;;;;;;;11.31;48.83;96272.66;4900865;29;20523;-89
2021/12/03 00:29:15;;;;;;;6.75;2.20;;;;;;;11.18;48.87;96272.84;4901274;29;20040;-88
2021/12/03 00:31:41;;;;;;;5.00;2.47;;;;;;;11.25;49.22;96290.09;4901256;29;20503;-87
2021/12/03 00:34:07;;;;;;;6.43;2.58;;;;;;;11.33;49.06;96300.97;4900920;29;20104;-89
2021/12/03 00:36:33;;;;;;;5.05;2.88;;;;;;;11.13;49.27;96288.44;4900991;29;20042;-87
2021/12/03 00:38:59;;;;;;;5.03;2.53;;;;;;;11.21;49.27;96294.00;4900791;29;20506;-88
2021/12/03 00:41:29;;;;;;;5.03;2.10;;;;;;;11.22;49.23;96268.94;4900288;29;20032;-88
2021/12/03 00:43:55;;;;;;;4.50;2.40;;;;;;;11.24;49.46;96283.03;4901107;29;20035;-87
2021/12/03 00:46:21;;;;;;;2.33;1.63;;;;;;;11.30;49.63;96287.88;4900951;29;20040;-88
2021/12/03 00:48:49;;;;;;;8.75;2.50;;;;;;;11.43;49.35;96280.50;4901686;29;20035;-87
2021/12/03 00:51:18;;;;;;;4.80;2.70;;;;;;;11.38;49.74;96282.69;4900881;29;20042;-87
2021/12/03 00:53:44;;;;;;;2.85;2.20;;;;;;;11.34;49.58;96277.75;4917632;29;20036;-88
2021/12/03 00:56:10;;;;;;;4.82;2.45;;;;;;;11.41;49.61;96274.41;4900994;29;20067;-87
2021/12/03 00:58:37;;;;;;;3.70;1.88;;;;;;;11.67;49.01;96264.13;4900789;29;20030;-88
2021/12/03 01:01:05;;;;;;;5.85;2.40;;;;;;;11.70;49.03;96269.25;4900766;29;20423;-89
2021/12/03 01:03:31;;;;;;;4.65;2.28;;;;;;;11.66;48.92;96266.94;4900542;29;20099;-87
2021/12/03 01:05:57;;;;;;;4.90;2.35;;;;;;;11.61;49.28;96264.66;4900364;29;20036;-88
2021/12/03 01:08:22;;;;;;;4.25;2.78;;;;;;;11.52;49.19;96257.41;4900415;29;20028;-87
2021/12/03 01:10:48;;;;;;;4.88;2.50;;;;;;;11.46;49.26;96254.41;4900903;29;20041;-88
2021/12/03 01:13:14;;;;;;;7.97;2.60;;;;;;;11.43;49.42;96256.41;4900289;29;20042;-88
2021/12/03 01:15:41;;;;;;;4.72;2.70;;;;;;;11.37;49.52;96251.56;4916344;29;20043;-86
2021/12/03 01:18:08;;;;;;;4.85;2.40;;;;;;;11.47;49.25;96256.13;4899547;29;20115;-89
2021/12/03 01:20:35;;;;;;;6.63;2.28;;;;;;;11.50;49.44;96264.75;4916255;29;20036;-89
2021/12/03 01:23:01;;;;;;;4.88;2.35;;;;;;;11.47;49.55;96261.47;4901169;29;20063;-88
2021/12/03 01:25:27;;;;;;;4.75;2.63;;;;;;;11.39;49.79;96254.09;4900801;29;20040;-88
2021/12/03 01:27:54;;;;;;;4.20;2.80;;;;;;;11.63;49.50;96256.50;4900177;29;20467;-88
2021/12/03 01:30:22;;;;;;;5.05;3.22;;;;;;;11.45;49.20;96226.78;4916728;29;20411;-88
2021/12/03 01:32:48;;;;;;;3.88;2.58;;;;;;;11.62;49.23;96270.88;4916329;29;20032;-88
2021/12/03 01:35:14;;;;;;;11.13;5.60;;;;;;;11.44;49.54;96246.53;4900532;29;20080;-87
2021/12/03 01:37:41;;;;;;;8.07;3.00;;;;;;;11.48;49.64;96274.72;4900806;29;20401;-89
2021/12/03 01:40:10;;;;;;;7.10;3.15;;;;;;;11.44;49.56;96260.75;4900352;29;20428;-89
2021/12/03 01:42:37;;;;;;;5.20;2.90;;;;;;;11.32;49.86;96260.97;4900425;29;20084;-88
2021/12/03 01:45:04;;;;;;;6.25;3.53;;;;;;;11.35;49.84;96271.44;4900380;29;20028;-87
2021/12/03 01:47:30;;;;;;;6.43;3.15;;;;;;;11.35;49.84;96264.22;4899930;29;20415;-88
2021/12/03 01:49:56;;;;;;;8.82;4.15;;;;;;;11.41;49.50;96268.22;4900168;29;20028;-88
2021/12/03 01:52:21;;;;;;;6.68;3.17;;;;;;;11.42;49.56;96286.81;4899835;29;20119;-88
2021/12/03 01:54:47;;;;;;;10.77;4.88;;;;;;;11.39;50.02;96284.41;4903696;29;20531;-88
2021/12/03 01:57:17;;;;;;;7.38;3.92;;;;;;;11.36;49.98;96286.47;4904475;29;20030;-89
2021/12/03 01:59:43;;;;;;;6.47;3.90;;;;;;;11.29;50.02;96312.91;4885475;29;20033;-89
2021/12/03 02:02:09;;;;;;;7.90;3.60;;;;;;;11.22;50.49;96289.50;4895040;29;20407;-88
2021/12/03 02:04:35;;;;;;;5.25;2.38;;;;;;;11.24;50.65;96304.44;4903625;29;20032;-88
2021/12/03 02:07:01;;;;;;;8.82;3.53;;;;;;;11.15;50.72;96302.53;4903755;29;20063;-88
2021/12/03 02:09:26;;;;;;;4.85;3.08;;;;;;;11.08;51.01;96277.25;4904096;29;20530;-89
2021/12/03 02:11:52;;;;;;;4.88;2.58;;;;;;;11.16;50.79;96280.16;4895752;29;20416;-88
2021/12/03 02:14:18;;;;;;;5.25;2.63;;;;;;;11.12;51.03;96276.03;4903180;29;20028;-87
2021/12/03 02:16:45;;;;;;;5.03;2.42;;;;;;;11.01;51.27;96251.19;4903588;29;20043;-90
2021/12/03 02:19:12;;;;;;;5.25;2.28;;;;;;;10.96;51.51;96246.19;4904733;29;20028;-88
2021/12/03 02:21:37;;;;;;;3.38;2.08;;;;;;;11.20;51.28;96270.88;4904767;29;20024;-89
2021/12/03 02:24:04;;;;;;;4.22;2.00;;;;;;;11.18;51.20;96242.56;4904364;29;20035;-88
2021/12/03 02:26:30;;;;;;;5.80;2.67;;;;;;;11.18;51.47;96246.09;4905124;29;20115;-90
2021/12/03 02:28:55;;;;;;;3.72;2.20;;;;;;;11.24;51.34;96250.91;4904272;29;20028;-89
2021/12/03 02:31:23;;;;;;;3.72;2.53;;;;;;;11.27;51.25;96250.66;4904200;29;20471;-89
2021/12/03 02:33:49;;;;;;;6.20;2.30;;;;;;;11.30;51.42;96234.31;4904322;29;20035;-94
2021/12/03 02:36:16;;;;;;;2.90;1.75;;;;;;;11.08;50.93;96180.94;4914570;29;20024;-94
2021/12/03 02:38:42;;;;;;;3.90;2.30;;;;;;;11.53;50.30;96185.97;4913728;29;20020;-93
2021/12/03 02:41:08;;;;;;;3.00;2.28;;;;;;;11.51;50.12;96172.72;4914408;29;20056;-93
2021/12/03 02:43:34;;;;;;;2.45;1.48;;;;;;;11.83;49.43;96199.38;4910998;29;20415;-94
2021/12/03 02:46:00;;;;;;;2.67;1.95;;;;;;;11.59;49.74;96164.88;4910925;29;20020;-92
2021/12/03 02:48:26;;;;;;;5.57;2.78;;;;;;;11.46;50.22;96163.38;4910013;29;20042;-92
2021/12/03 02:50:54;;;;;;;5.55;2.35;;;;;;;11.44;50.04;96164.38;4910372;29;20044;-93
2021/12/03 02:53:19;;;;;;;4.70;2.00;;;;;;;11.71;50.27;96201.31;4903871;29;20519;-90
2021/12/03 02:55:45;;;;;;;2.10;1.83;;;;;;;11.70;49.95;96193.41;4903898;29;20056;-91
2021/12/03 02:58:12;;;;;;;4.07;2.40;;;;;;;11.71;50.23;96197.78;4903583;29;20067;-90
2021/12/03 03:00:39;;;;;;;6.43;2.35;;;;;;;11.82;49.67;96185.13;4903911;29;20036;-89
2021/12/03 03:03:05;;;;;;;6.07;2.42;;;;;;;11.83;49.95;96218.97;4903026;29;20036;-88
2021/12/03 03:05:31;;;;;;;5.68;2.53;;;;;;;11.98;50.04;96250.75;4918780;29;20028;-89
2021/12/03 03:07:56;;;;;;;5.03;2.05;;;;;;;12.25;49.25;96226.84;4904546;29;20047;-90
2021/12/03 03:10:29;;;;;;;5.63;2.08;;;;;;;12.31;49.32;96253.97;4904804;29;20035;-89
2021/12/03 03:12:55;;;;;;;5.97;2.15;;;;;;;12.26;48.70;96224.06;4903250;29;20039;-88
2021/12/03 03:15:21;;;;;;;2.85;1.77;;;;;;;12.28;48.79;96222.06;4903269;29;20028;-89
2021/12/03 03:17:47;;;;;;;4.82;1.90;;;;;;;12.22;48.99;96217.25;4918326;29;20028;-90
2021/12/03 03:20:14;;;;;;;3.58;1.67;;;;;;;12.10;48.92;96206.78;4904135;29;20133;-89
2021/12/03 03:22:41;;;;;;;2.58;1.67;;;;;;;12.47;48.68;96248.94;4903386;29;20095;-90
2021/12/03 03:25:09;;;;;;;8.80;3.67;;;;;;;12.35;49.25;96255.41;4902272;29;20028;-89
2021/12/03 03:27:35;;;;;;;2.83;1.90;;;;;;;11.89;49.49;96209.56;4902394;29;20099;-88
2021/12/03 03:30:01;;;;;;;3.38;1.95;;;;;;;11.89;49.84;96228.31;4901681;29;20024;-89
2021/12/03 03:32:28;;;;;;;3.58;2.13;;;;;;;11.98;49.58;96215.91;4918837;29;20024;-90
2021/12/03 03:34:53;;;;;;;3.10;2.30;;;;;;;12.03;50.07;96246.69;4901844;29;20122;-90
2021/12/03 03:37:20;;;;;;;5.97;2.30;;;;;;;11.80;50.15;96221.06;4902310;29;20063;-90
2021/12/03 03:39:46;;;;;;;4.30;2.38;;;;;;;11.83;50.28;96250.28;4901785;29;20036;-90
2021/12/03 03:42:12;;;;;;;2.83;1.77;;;;;;;11.75;50.19;96223.31;4902864;29;20088;-89
2021/12/03 03:44:38;;;;;;;3.65;2.60;;;;;;;11.92;50.34;96263.72;4902217;29;20039;-89
2021/12/03 03:47:05;;;;;;;5.88;2.53;;;;;;;11.67;50.74;96245.38;4902642;29;20032;-89
2021/12/03 03:49:32;;;;;;;6.45;3.20;;;;;;;11.40;51.34;96240.59;4902923;29;20039;-90
2021/12/03 03:51:59;;;;;;;5.25;2.60;;;;;;;11.36;51.77;96239.16;4918885;29;20028;-87
2021/12/03 03:54:24;;;;;;;6.38;2.25;;;;;;;11.52;51.39;96265.44;4921255;29;20399;-90
2021/12/03 03:56:50;;;;;;;3.50;2.10;;;;;;;11.72;51.04;96271.81;4905477;29;20027;-90
2021/12/03 03:59:17;;;;;;;3.97;2.30;;;;;;;11.72;51.18;96255.75;4905555;29;20040;-88
2021/12/03 04:01:45;;;;;;;5.05;1.92;;;;;;;11.44;51.39;96223.25;4928647;29;20479;-88
2021/12/03 04:04:11;;;;;;;5.65;2.70;;;;;;;11.43;52.01;96259.06;4905751;29;20039;-89
2021/12/03 04:06:36;;;;;;;3.55;2.50;;;;;;;11.27;52.08;96242.63;4906060;29;20038;-89
2021/12/03 04:09:03;;;;;;;2.20;1.77;;;;;;;11.23;52.25;96251.03;4921682;29;20023;-91
2021/12/03 04:11:43;;;;;;;3.97;2.13;;;;;;;11.14;52.20;96230.41;4922210;29;20032;-90
2021/12/03 04:14:09;;;;;;;4.55;2.85;;;;;;;11.21;52.63;96263.69;4920301;29;20431;-87
2021/12/03 04:16:34;;;;;;;2.90;1.65;;;;;;;11.06;52.98;96260.50;4921138;29;20039;-91
2021/12/03 04:19:00;;;;;;;5.55;2.95;;;;;;;11.03;53.39;96263.44;4921132;29;20241;-88
2021/12/03 04:21:26;;;;;;;5.53;2.42;;;;;;;11.01;53.58;96292.16;4915343;29;20031;-90
2021/12/03 04:23:52;;;;;;;2.63;2.10;;;;;;;11.02;53.36;96260.88;4921395;29;20122;-88
2021/12/03 04:26:18;;;;;;;4.53;2.58;;;;;;;10.92;53.45;96242.06;4921072;29;20087;-88
2021/12/03 04:28:44;;;;;;;5.22;3.10;;;;;;;11.00;53.85;96276.22;4920566;29;20032;-90
2021/12/03 04:31:09;;;;;;;5.40;2.70;;;;;;;10.87;54.01;96271.03;4914472;29;20040;-87
2021/12/03 04:33:35;;;;;;;4.90;2.53;;;;;;;10.77;53.99;96246.88;4910038;29;20074;-85
2021/12/03 04:36:01;;;;;;;6.10;3.35;;;;;;;10.87;54.15;96263.03;4907444;29;20031;-90
2021/12/03 04:38:27;;;;;;;3.63;2.70;;;;;;;11.05;53.87;96279.34;4904279;29;20038;-89
2021/12/03 04:40:53;;;;;;;9.13;3.25;;;;;;;10.89;54.22;96272.59;4920118;29;20022;-89
2021/12/03 04:43:18;;;;;;;7.10;3.03;;;;;;;10.86;53.93;96266.66;4920467;29;20039;-87
2021/12/03 04:45:44;;;;;;;3.80;2.67;;;;;;;10.98;53.76;96280.88;4908948;29;20551;-88
2021/12/03 04:48:12;;;;;;;3.00;2.53;;;;;;;11.02;53.90;96287.63;4920937;29;20031;-87
2021/12/03 04:50:40;;;;;;;7.65;2.95;;;;;;;11.09;54.11;96310.22;4905047;29;20028;-88
2021/12/03 04:53:07;;;;;;;6.68;3.20;;;;;;;10.98;54.43;96300.44;4917297;29;20028;-85
2021/12/03 04:55:37;;;;;;;17.27;6.43;;;;;;;10.92;54.62;96297.44;4919205;29;20051;-89
2021/12/03 04:58:03;;;;;;;9.10;4.70;;;;;;;10.99;54.46;96307.47;4904728;29;20487;-89
2021/12/03 05:00:39;;;;;;;3.75;2.58;;;;;;;10.97;54.84;96322.81;4904697;29;20388;-89
2021/12/03 05:03:07;;;;;;;6.25;3.20;;;;;;;10.91;54.74;96317.97;4912850;29;20090;-89
2021/12/03 05:05:34;;;;;;;4.57;2.88;;;;;;;10.88;54.77;96310.19;4903805;29;20027;-89
2021/12/03 05:08:10;;;;;;;4.20;1.77;;;;;;;11.02;54.29;96282.28;4910675;29;20090;-90
2021/12/03 05:10:41;;;;;;;5.95;2.80;;;;;;;10.95;54.81;96287.28;4905230;29;20031;-90
2021/12/03 05:13:10;;;;;;;7.80;2.75;;;;;;;10.84;55.17;96287.34;4903421;29;20043;-88
2021/12/03 05:15:37;;;;;;;5.88;2.70;;;;;;;10.95;54.91;96298.00;4906778;29;20027;-88
2021/12/03 05:18:03;;;;;;;5.10;2.85;;;;;;;10.95;54.74;96273.09;4908797;29;20067;-89
2021/12/03 05:20:28;;;;;;;9.05;3.40;;;;;;;11.08;54.57;96300.50;4933432;29;20038;-88
2021/12/03 05:22:54;;;;;;;8.25;3.17;;;;;;;11.02;54.99;96307.22;4903147;29;20072;-87
2021/12/03 05:25:22;;;;;;;6.53;2.92;;;;;;;10.91;55.27;96288.53;4902813;29;20050;-87
2021/12/03 05:27:50;;;;;;;4.22;2.78;;;;;;;11.08;54.96;96303.16;4904994;29;20042;-90
2021/12/03 05:30:33;;;;;;;5.43;2.75;;;;;;;11.11;54.86;96297.56;4924019;29;20392;-88
2021/12/03 05:32:59;;;;;;;7.78;3.20;;;;;;;10.91;55.03;96261.78;4939473;29;20043;-88
2021/12/03 05:35:27;;;;;;;7.82;3.70;;;;;;;10.93;55.19;96272.34;4910060;29;20034;-90
2021/12/03 05:37:53;;;;;;;7.85;3.15;;;;;;;11.24;54.65;96308.94;4907168;29;20032;-88
2021/12/03 05:40:21;;;;;;;5.00;2.70;;;;;;;11.08;54.32;96287.13;4915202;29;20032;-89
2021/12/03 05:42:59;;;;;;;11.40;3.25;;;;;;;11.31;54.29;96313.66;4923729;29;20079;-90
2021/12/03 05:45:31;;;;;;;5.53;2.80;;;;;;;11.09;54.03;96278.13;4912258;29;20028;-89
2021/12/03 05:48:02;;;;;;;9.45;3.25;;;;;;;11.26;54.11;96305.16;4924099;29;20027;-90
2021/12/03 05:50:30;;;;;;;10.88;3.13;;;;;;;11.18;53.66;96275.53;4923896;29;20416;-88
2021/12/03 05:53:05;;;;;;;3.70;2.45;;;;;;;11.18;53.71;96280.03;4908491;29;20107;-89
2021/12/03 05:55:37;;;;;;;9.32;4.05;;;;;;;11.33;53.78;96297.44;4911238;29;20085;-89
2021/12/03 05:58:06;;;;;;;7.07;2.72;;;;;;;11.41;53.67;96293.13;4907425;29;20467;-90
2021/12/03 06:00:47;;;;;;;5.50;2.42;;;;;;;11.43;52.91;96251.03;4916226;29;20068;-90
2021/12/03 06:03:19;;;;;;;5.05;2.35;;;;;;;11.87;52.52;96311.47;4904882;29;20107;-87
2021/12/03 06:05:48;;;;;;;6.60;3.45;;;;;;;11.74;52.99;96301.97;4907428;29;20112;-88
2021/12/03 06:08:13;;;;;;;6.97;2.95;;;;;;;11.66;52.66;96289.19;4907131;29;20590;-89
2021/12/03 06:10:42;;;;;;;4.20;3.25;;;;;;;11.75;52.79;96320.59;4907367;29;20063;-91
2021/12/03 06:13:46;;;;;;;7.70;2.80;;;;;;;12.00;52.72;96356.00;4925133;29;20034;-89
2021/12/03 06:16:15;;;;;;;5.80;3.55;;;;;;;12.03;52.76;96345.84;4944486;29;20024;-91
2021/12/03 06:18:43;;;;;;;6.30;2.45;;;;;;;11.87;52.23;96302.63;4907795;29;20063;-88
2021/12/03 06:21:11;;;;;;;4.75;2.20;;;;;;;11.98;52.40;96313.25;4908037;29;20032;-89
2021/12/03 06:23:39;;;;;;;14.73;3.50;;;;;;;12.15;52.22;96344.75;4919810;29;20114;-91
2021/12/03 06:26:07;;;;;;;9.20;3.35;;;;;;;12.18;52.06;96349.03;4907678;29;20155;-89
2021/12/03 06:28:33;;;;;;;8.98;4.30;;;;;;;11.93;52.31;96302.09;4911661;29;20047;-89
2021/12/03 06:30:59;;;;;;;7.70;4.30;;;;;;;12.07;52.37;96331.19;4906589;29;20404;-89
2021/12/03 06:33:25;;;;;;;10.98;4.60;;;;;;;12.34;51.79;96344.84;4906795;29;20104;-89
2021/12/03 06:35:54;;;;;;;25.13;12.65;;;;;;;12.45;52.01;96360.88;4906507;29;20059;-87
2021/12/03 06:38:20;;;;;;;10.10;5.55;;;;;;;12.64;51.38;96388.72;4906402;29;20035;-88
2021/12/03 06:40:47;;;;;;;14.13;8.52;;;;;;;12.54;51.19;96366.38;4923556;29;20039;-89
2021/12/03 06:43:12;;;;;;;8.88;3.60;;;;;;;12.50;51.04;96353.25;4904812;29;20031;-88
2021/12/03 06:45:38;;;;;;;11.55;4.38;;;;;;;12.78;50.84;96385.66;4912661;29;20035;-88
2021/12/03 06:48:07;;;;;;;8.27;4.00;;;;;;;12.74;50.34;96354.72;4909688;29;20032;-87
2021/12/03 06:50:35;;;;;;;7.93;4.22;;;;;;;12.84;50.23;96360.97;4907397;29;20127;-87
2021/12/03 06:53:11;;;;;;;7.90;3.90;;;;;;;12.96;50.29;96394.75;4907454;29;20032;-89
2021/12/03 06:56:05;;;;;;;9.35;5.45;;;;;;;12.80;50.44;96362.22;4907466;29;20099;-88
2021/12/03 06:58:24;;;;;;;9.57;4.10;;;;;;;12.75;50.12;96351.91;4916884;29;20032;-88
2021/12/03 07:00:54;;;;;;;7.15;4.07;;;;;;;12.86;50.31;96367.88;4906586;29;20057;-88
2021/12/03 07:03:21;;;;;;;10.15;5.55;;;;;;;12.91;50.87;96389.81;4904972;29;20054;-89
2021/12/03 07:05:47;;;;;;;8.52;3.95;;;;;;;12.96;50.29;96390.22;4905447;29;20034;-89
2021/12/03 07:08:13;;;;;;;6.93;4.35;;;;;;;13.07;50.52;96394.66;4921419;29;20027;-88
2021/12/03 07:10:38;;;;;;;16.40;4.35;;;;;;;13.08;50.46;96388.31;4904886;29;20448;-86
2021/12/03 07:13:07;;;;;;;5.75;3.28;;;;;;;12.97;49.89;96348.13;4922431;29;20031;-89
2021/12/03 07:15:33;;;;;;;5.80;3.53;;;;;;;13.19;50.38;96398.94;4903462;29;20028;-83
2021/12/03 07:17:59;;;;;;;4.22;2.85;;;;;;;13.19;50.14;96396.25;4903013;29;20035;-79
2021/12/03 07:20:25;;;;;;;13.13;5.65;;;;;;;13.25;50.37;96405.56;4910001;29;20114;-77
2021/12/03 07:22:51;;;;;;;22.70;11.15;;;;;;;13.34;50.25;96410.97;4901601;29;20389;-79
2021/12/03 07:25:17;;;;;;;8.90;4.93;;;;;;;13.39;49.80;96400.63;4915406;29;20036;-80
2021/12/03 07:27:43;;;;;;;12.32;5.53;;;;;;;13.50;49.83;96405.03;4903104;29;20040;-80
2021/12/03 07:30:11;;;;;;;9.20;3.67;;;;;;;13.54;49.31;96391.16;4902506;29;20066;-80
2021/12/03 07:32:37;;;;;;;9.27;3.47;;;;;;;13.60;49.33;96402.34;4900972;29;20063;-81
2021/12/03 07:35:04;;;;;;;7.95;4.20;;;;;;;13.60;49.43;96402.34;4900198;29;20107;-81
2021/12/03 07:37:29;;;;;;;9.18;4.22;;;;;;;13.67;49.13;96408.84;4916540;29;20020;-81
2021/12/03 07:39:57;;;;;;;8.27;3.35;;;;;;;13.60;49.31;96407.72;4900563;29;20430;-81
2021/12/03 07:42:22;;;;;;;16.02;3.70;;;;;;;13.60;49.07;96399.66;4916782;29;20104;-81
2021/12/03 07:44:48;;;;;;;6.82;2.65;;;;;;;13.71;49.08;96415.63;4918252;29;20499;-81
2021/12/03 07:47:13;;;;;;;8.00;3.38;;;;;;;13.56;49.00;96397.28;4909564;29;20051;-80
2021/12/03 07:49:40;;;;;;;3.78;2.38;;;;;;;13.58;48.72;96373.78;4931771;29;20507;-80
2021/12/03 07:52:07;;;;;;;11.73;4.13;;;;;;;13.87;48.63;96400.63;4902388;29;20031;-80
2021/12/03 07:54:32;;;;;;;9.57;3.95;;;;;;;14.12;48.31;96388.41;4899759;29;20027;-81
2021/12/03 07:56:58;;;;;;;9.75;3.72;;;;;;;14.36;47.44;96388.81;4904412;29;20028;-81
2021/12/03 07:59:23;;;;;;;8.85;4.28;;;;;;;14.63;47.24;96383.47;4899977;29;20415;-81
2021/12/03 08:01:49;;;;;;;13.55;6.82;;;;;;;15.01;45.67;96381.56;4921115;29;20039;-81
2021/12/03 08:04:15;;;;;;;5.65;3.92;;;;;;;15.24;45.24;96385.53;4901878;29;20035;-79
2021/12/03 08:06:42;;;;;;;9.30;4.50;;;;;;;15.34;45.01;96369.31;4915631;29;20475;-80
2021/12/03 08:09:09;;;;;;;5.40;2.80;;;;;;;15.57;44.59;96378.63;4903353;29;20043;-80
2021/12/03 08:11:36;;;;;;;11.70;5.13;;;;;;;15.95;43.99;96369.38;4915457;29;20032;-80
2021/12/03 08:14:02;;;;;;;8.85;4.63;;;;;;;16.39;42.96;96367.50;4901002;29;20134;-80
2021/12/03 08:16:28;;;;;;;7.63;4.53;;;;;;;16.88;42.25;96384.81;4900621;29;20636;-80
2021/12/03 08:18:53;;;;;;;21.58;11.00;;;;;;;17.18;41.20;96359.94;4915067;29;20653;-80
2021/12/03 08:21:19;;;;;;;26.60;10.00;;;;;;;17.43;41.67;96377.91;4932078;29;20031;-85
2021/12/03 08:23:47;;;;;;;9.15;3.55;;;;;;;17.69;40.54;96359.72;4900709;29;20040;-84
2021/12/03 08:26:13;;;;;;;13.60;4.90;;;;;;;17.95;39.45;96362.25;4916357;29;20520;-85
2021/12/03 08:28:38;;;;;;;7.30;2.95;;;;;;;18.26;38.61;96351.59;4900941;29;20114;-86
2021/12/03 08:31:18;;;;;;;10.85;5.07;;;;;;;18.91;37.83;96349.56;5078903;27;20401;-86
2021/12/03 08:33:44;;;;;;;6.43;3.05;;;;;;;20.19;36.17;96352.47;5055151;28;20039;-87
2021/12/03 08:36:11;;;;;;;5.68;3.38;;;;;;;20.67;34.67;96353.91;5051685;28;20033;-85
2021/12/03 08:38:37;;;;;;;4.78;2.90;;;;;;;20.48;34.81;96346.28;5053989;28;20111;-87
2021/12/03 08:41:03;;;;;;;3.72;2.35;;;;;;;20.10;35.41;96358.16;5070212;28;20078;-85
2021/12/03 08:43:29;;;;;;;6.68;1.88;;;;;;;19.78;35.82;96372.84;5060301;28;20033;-86
2021/12/03 08:45:55;;;;;;;4.45;2.28;;;;;;;19.95;35.59;96358.97;5054775;28;20025;-86
2021/12/03 08:48:23;;;;;;;5.03;2.90;;;;;;;20.44;35.22;96343.09;5049127;28;20047;-87
2021/12/03 08:51:09;;;;;;;5.03;2.30;;;;;;;21.06;33.99;96353.59;5056509;28;20468;-87
2021/12/03 08:56:23;;;;;;;6.65;3.83;;;;;;;22.08;32.44;96347.91;5055327;28;20470;-87
2021/12/03 08:58:49;;;;;;;8.43;3.60;;;;;;;21.62;32.93;96354.75;5052870;28;20028;-86
2021/12/03 09:01:14;;;;;;;8.43;3.33;;;;;;;20.91;34.15;96347.31;5052992;28;20032;-87
2021/12/03 09:03:40;;;;;;;6.45;3.53;;;;;;;21.21;34.00;96356.31;5049471;28;20025;-86
2021/12/03 09:06:06;;;;;;;3.05;1.23;;;;;;;20.90;33.44;96323.88;5058287;28;20499;-88
2021/12/03 09:08:32;;;;;;;6.40;2.92;;;;;;;21.03;33.80;96338.50;5057666;28;20545;-87
2021/12/03 09:10:57;;;;;;;6.45;2.97;;;;;;;21.08;33.51;96322.47;5054296;28;20021;-86
2021/12/03 09:13:23;;;;;;;14.38;4.18;;;;;;;20.79;34.00;96349.69;5069352;28;20036;-86
2021/12/03 09:16:06;;;;;;;4.60;2.97;;;;;;;21.34;33.45;96348.34;5060954;28;20498;-87
2021/12/03 09:26:19;;;;;;;4.32;2.22;;;;;;;22.88;31.26;96341.19;5077952;28;20047;-86
2021/12/03 09:28:47;;;;;;;7.72;2.60;;;;;;;22.94;31.14;96354.88;5066653;28;20448;-87
2021/12/03 09:31:15;;;;;;;7.60;3.40;;;;;;;22.46;31.86;96369.38;5066132;28;20072;-86
2021/12/03 09:33:44;;;;;;;7.03;3.17;;;;;;;21.50;33.29;96378.03;5084166;28;20032;-86
2021/12/03 09:36:10;;;;;;;5.60;3.00;;;;;;;20.77;34.29;96378.06;5069636;28;20044;-87
2021/12/03 09:38:36;;;;;;;6.75;2.65;;;;;;;20.15;35.57;96380.19;5059852;28;20041;-85
2021/12/03 09:41:11;;;;;;;3.92;1.73;;;;;;;19.87;35.44;96377.19;5049627;28;20016;-86
2021/12/03 09:43:41;;;;;;;10.90;3.38;;;;;;;19.61;36.44;96380.22;5045443;28;20047;-86
2021/12/03 09:46:27;;;;;;;3.78;2.58;;;;;;;19.28;37.09;96365.16;5040003;28;20090;-87
2021/12/03 09:56:48;;;;;;;14.70;3.97;;;;;;;17.37;40.62;96394.78;5058648;28;20386;-86
2021/12/03 10:01:46;;;;;;;9.40;2.95;;;;;;;17.29;41.51;96401.00;5054627;28;20128;-85
2021/12/03 10:17:48;;;;;;;7.25;3.28;;;;;;;16.44;43.13;96405.63;5062194;28;20484;-86
2021/12/03 10:30:55;;;;;;;9.82;4.13;;;;;;;16.29;43.97;96389.19;5058854;28;20126;-87
2021/12/03 10:33:44;;;;;;;9.88;4.53;;;;;;;16.36;43.77;96389.41;5050841;28;20056;-86
2021/12/03 10:50:02;;;;;;;4.78;2.03;;;;;;;16.38;42.87;96346.88;5062652;28;20108;-87
2021/12/03 10:53:29;;;;;;;12.32;4.00;;;;;;;16.20;43.71;96379.34;5035827;28;20123;-86
2021/12/03 11:01:18;;;;;;;5.45;2.65;;;;;;;16.33;43.08;96382.47;5058571;28;20033;-87
2021/12/03 11:14:43;;;;;;;9.43;3.83;;;;;;;16.41;43.10;96390.59;5059266;28;20032;-86
2021/12/03 12:44:03;;;;;;;9.52;3.60;;;;;;;16.77;40.83;96351.69;5063693;28;20487;-86
2021/12/03 13:16:20;;;;;;;13.65;5.10;;;;;;;16.16;41.65;96377.94;5059199;28;20028;-86
2021/12/03 13:19:00;;;;;;;20.60;8.10;;;;;;;16.15;42.30;96389.78;5063558;28;20399;-86
2021/12/03 13:27:33;;;;;;;8.63;3.15;;;;;;;16.32;41.17;96394.25;5066283;28;20093;-85
2021/12/03 14:05:15;;;;;;;8.80;2.40;;;;;;;16.03;41.23;96420.66;5056313;28;20040;-85
2021/12/03 14:35:34;;;;;;;32.72;14.88;;;;;;;12.21;59.72;96526.53;5060773;28;20052;-86
2021/12/03 14:48:33;;;;;;;49.60;26.70;;;;;;;10.76;68.31;96576.00;5060721;28;20047;-86
2021/12/03 14:56:40;;;;;;;22.42;11.23;;;;;;;10.24;71.98;96617.41;5060967;28;20032;-86
2021/12/03 14:59:10;;;;;;;16.83;8.98;;;;;;;10.07;72.99;96617.81;5051733;28;20032;-85
2021/12/03 15:04:50;;;;;;;16.52;9.52;;;;;;;9.53;76.28;96628.09;5058380;28;20025;-86
2021/12/03 15:09:43;;;;;;;55.42;27.30;;;;;;;9.45;79.27;96641.09;5062754;28;20039;-86
2021/12/03 15:12:40;;;;;;;43.45;20.75;;;;;;;9.56;78.49;96656.38;5039237;28;20506;-85
2021/12/03 15:29:35;;;;;;;25.45;12.07;;;;;;;9.36;81.56;96691.63;5069671;28;20526;-86
2021/12/03 15:31:58;;;;;;;26.13;13.50;;;;;;;9.30;82.15;96686.72;5056906;28;20095;-86
2021/12/03 15:34:51;;;;;;;27.05;13.20;;;;;;;9.28;82.29;96689.50;5055553;28;20028;-84
2021/12/03 16:08:22;;;;;;;21.75;10.90;;;;;;;8.71;85.26;96707.72;5083888;28;20103;-92
2021/12/03 16:16:35;;;;;;;28.63;14.20;;;;;;;8.70;86.39;96730.03;5080293;28;20024;-86
2021/12/03 16:53:13;;;;;;;35.17;17.30;;;;;;;8.73;85.90;96752.94;5075335;28;20031;-91
2021/12/03 16:55:39;;;;;;;34.55;17.00;;;;;;;8.83;86.43;96775.38;5057514;28;20046;-92
2021/12/03 16:58:09;;;;;;;18.33;10.20;;;;;;;9.03;83.97;96813.06;5056223;28;20023;-94
2021/12/03 17:00:38;;;;;;;23.95;10.82;;;;;;;8.83;83.21;96796.69;5058528;28;20028;-94
2021/12/03 17:03:12;;;;;;;20.38;10.73;;;;;;;9.05;83.02;96826.28;5056197;28;20024;-93
2021/12/03 17:13:46;;;;;;;25.00;14.00;;;;;;;8.79;82.58;96804.06;5073486;28;20094;-93
2021/12/03 17:20:01;;;;;;;44.72;24.20;;;;;;;8.49;82.82;96774.09;5075622;28;20036;-90
2021/12/03 17:30:52;;;;;;;23.90;13.95;;;;;;;8.87;82.06;96839.03;5064995;28;20024;-92
2021/12/03 17:47:52;;;;;;;49.22;25.08;;;;;;;8.68;83.11;96814.56;5072548;28;20089;-93
2021/12/03 17:53:22;;;;;;;36.50;18.55;;;;;;;8.99;83.45;96870.22;5070333;28;20465;-94
2021/12/03 17:56:03;;;;;;;16.30;8.68;;;;;;;8.63;83.00;96825.53;5073897;28;20029;-94
2021/12/03 17:58:43;;;;;;;5.45;2.33;;;;;;;8.55;82.38;96837.66;5056591;28;20043;-92
2021/12/03 18:04:03;;;;;;;3.60;1.17;;;;;;;8.64;83.70;96891.19;5067882;28;20040;-91
2021/12/03 18:10:07;;;;;;;2.15;1.70;;;;;;;8.61;84.55;96898.56;5064396;28;20082;-91
2021/12/03 18:12:18;;;;;;;7.32;3.90;;;;;;;8.50;85.76;96883.25;5046588;28;20051;-84
2021/12/03 18:48:17;;;;;;;18.13;9.73;;;;;;;8.32;82.19;96849.78;5014670;28;20037;-94
2021/12/03 18:56:42;;;;;;;32.33;17.95;;;;;;;8.61;83.52;96901.22;5023494;28;20057;-94
2021/12/03 18:59:09;;;;;;;34.13;18.85;;;;;;;8.16;83.37;96844.56;5032620;28;20073;-94
2021/12/03 19:01:38;;;;;;;39.38;21.45;;;;;;;8.19;84.94;96844.34;5056643;28;20043;-94
2021/12/03 19:09:28;;;;;;;25.15;15.13;;;;;;;8.29;86.39;96842.00;5071405;28;20130;-94
2021/12/03 19:14:23;;;;;;;24.58;8.02;;;;;;;8.54;83.80;96884.78;5067377;28;20085;-93